Time;durP1;ratioP1;P1;durP2;ratioP2;P2;SDS_P1;SDS_P2;PMS_P1;PMS_P2;Temp;Humidity;BMP_temperature;BMP_pressure;BME280_temperature;BME280_humidity;BME280_pressure;Samples;Min_cycle;Max_cycle;Signal;HPM_P1;HPM_P2
2023/06/29 00:01:11;;;;;;;8.52;3.97;;;;;;;16.73;89.21;99352.28;5019322;28;20025;-72
2023/06/29 00:03:36;;;;;;;5.57;4.38;;;;;;;16.59;88.35;99359.31;5032990;28;20017;-73
2023/06/29 00:06:02;;;;;;;4.70;3.75;;;;;;;16.48;91.44;99370.47;5033851;28;20036;-73
2023/06/29 00:08:34;;;;;;;4.90;4.07;;;;;;;16.26;92.94;99360.78;5033261;28;20023;-73
2023/06/29 00:10:59;;;;;;;6.18;4.45;;;;;;;16.13;95.38;99358.16;5040340;28;20021;-73
2023/06/29 00:13:24;;;;;;;17.52;4.65;;;;;;;16.02;97.22;99367.63;5052756;28;20491;-72
2023/06/29 00:15:50;;;;;;;5.45;4.72;;;;;;;16.08;97.32;99357.66;5053492;28;20025;-73
2023/06/29 00:18:18;;;;;;;6.68;4.57;;;;;;;15.88;96.79;99357.69;5029464;28;20021;-73
2023/06/29 00:20:44;;;;;;;8.55;5.25;;;;;;;15.93;99.16;99370.69;5033985;28;20033;-73
2023/06/29 00:23:10;;;;;;;6.93;4.60;;;;;;;15.82;99.96;99382.56;5032010;28;20040;-73
2023/06/29 00:25:35;;;;;;;5.28;4.47;;;;;;;15.76;100.00;99363.50;5033777;28;20106;-72
2023/06/29 00:28:01;;;;;;;6.57;4.55;;;;;;;15.76;100.00;99367.09;5034470;28;20064;-73
2023/06/29 00:30:27;;;;;;;7.65;4.82;;;;;;;15.76;99.16;99367.09;5015484;28;20511;-73
2023/06/29 00:32:53;;;;;;;7.25;4.78;;;;;;;15.80;100.00;99373.63;5032862;28;20037;-73
2023/06/29 00:35:18;;;;;;;8.57;5.28;;;;;;;15.77;99.09;99370.75;5032776;28;20025;-73
2023/06/29 00:37:44;;;;;;;8.48;4.75;;;;;;;15.72;100.00;99374.69;5049311;28;20117;-73
2023/06/29 00:40:10;;;;;;;8.25;5.40;;;;;;;15.83;99.65;99375.72;5038535;28;20037;-73
2023/06/29 00:42:36;;;;;;;7.93;4.10;;;;;;;15.78;98.76;99361.09;5032906;28;20467;-72
2023/06/29 00:45:02;;;;;;;10.98;4.85;;;;;;;15.61;97.09;99368.03;5033127;28;20400;-73
2023/06/29 00:47:29;;;;;;;6.88;4.45;;;;;;;15.82;96.54;99373.25;5033116;28;20067;-73
2023/06/29 00:49:55;;;;;;;9.23;5.13;;;;;;;15.83;94.89;99366.44;5031864;28;20087;-73
2023/06/29 00:52:22;;;;;;;5.22;3.92;;;;;;;15.83;94.96;99372.91;5018501;28;20172;-73
2023/06/29 00:54:47;;;;;;;7.75;4.05;;;;;;;15.91;94.25;99370.22;5033065;28;20504;-73
2023/06/29 00:57:13;;;;;;;6.63;3.90;;;;;;;15.99;96.62;99380.47;5021836;28;20049;-73
2023/06/29 00:59:39;;;;;;;5.35;4.00;;;;;;;16.11;95.86;99374.66;5033021;28;20036;-73
2023/06/29 01:02:04;;;;;;;4.43;3.65;;;;;;;16.08;91.40;99378.22;5031602;28;20029;-73
2023/06/29 01:04:33;;;;;;;8.77;4.35;;;;;;;16.10;94.15;99383.47;5032842;28;20035;-73
2023/06/29 01:07:10;;;;;;;5.18;3.72;;;;;;;15.88;92.40;99387.88;5032775;28;20038;-74
2023/06/29 01:09:36;;;;;;;3.97;3.55;;;;;;;15.86;91.25;99397.53;5049628;28;20056;-72
2023/06/29 01:12:03;;;;;;;5.63;3.63;;;;;;;15.85;90.59;99401.53;5036812;28;20029;-73
2023/06/29 01:14:31;;;;;;;6.40;4.30;;;;;;;15.66;91.36;99407.19;5014411;28;20503;-73
2023/06/29 01:16:58;;;;;;;5.82;3.55;;;;;;;15.60;92.50;99394.59;5014904;28;20090;-73
2023/06/29 01:19:29;;;;;;;5.82;3.63;;;;;;;15.62;93.90;99386.56;5031722;28;20053;-73
2023/06/29 01:22:02;;;;;;;17.80;4.25;;;;;;;15.65;95.47;99372.56;5031787;28;20074;-73
2023/06/29 01:24:39;;;;;;;6.43;4.03;;;;;;;15.75;95.79;99364.66;5014035;28;20415;-73
2023/06/29 01:27:07;;;;;;;5.82;4.15;;;;;;;15.71;96.17;99361.78;5015956;28;20059;-72
2023/06/29 01:29:33;;;;;;;8.55;4.53;;;;;;;15.77;95.77;99356.66;5032321;28;20074;-73
2023/06/29 01:32:03;;;;;;;6.13;4.60;;;;;;;15.53;95.26;99342.50;5031584;28;20029;-73
2023/06/29 01:34:31;;;;;;;6.03;4.15;;;;;;;15.57;96.44;99351.03;5032304;28;20023;-73
2023/06/29 01:37:09;;;;;;;4.95;4.28;;;;;;;15.49;96.33;99371.78;5032199;28;20033;-73
2023/06/29 01:39:47;;;;;;;5.28;4.75;;;;;;;15.34;96.71;99382.78;5031606;28;20033;-73
2023/06/29 01:42:13;;;;;;;8.38;4.53;;;;;;;15.30;97.77;99402.41;5032050;28;20039;-73
2023/06/29 01:44:40;;;;;;;5.88;5.25;;;;;;;15.19;98.00;99397.75;5015016;28;20061;-73
2023/06/29 01:47:08;;;;;;;7.80;4.90;;;;;;;15.16;98.91;99388.84;5014259;28;20512;-73
2023/06/29 01:49:35;;;;;;;4.97;4.13;;;;;;;15.20;99.29;99377.63;5032079;28;20036;-73
2023/06/29 01:52:03;;;;;;;7.53;5.13;;;;;;;15.25;97.35;99377.34;5047126;28;20033;-73
2023/06/29 01:54:28;;;;;;;5.78;4.47;;;;;;;15.20;97.45;99363.53;5031550;28;20112;-72
2023/06/29 01:56:54;;;;;;;6.78;4.85;;;;;;;15.36;96.25;99369.13;5013811;28;20483;-73
2023/06/29 01:59:19;;;;;;;6.88;4.43;;;;;;;15.33;96.04;99369.06;5028576;28;20033;-73
2023/06/29 02:01:45;;;;;;;6.45;4.32;;;;;;;15.25;95.50;99368.06;5030057;28;20112;-73
2023/06/29 02:04:10;;;;;;;4.10;3.70;;;;;;;15.29;97.09;99364.16;5031775;28;20032;-73
2023/06/29 02:06:36;;;;;;;8.73;4.80;;;;;;;15.33;96.59;99366.25;5013882;28;20049;-73
2023/06/29 02:09:01;;;;;;;4.40;3.78;;;;;;;15.32;97.09;99370.22;5030996;28;20507;-73
2023/06/29 02:11:27;;;;;;;5.57;4.72;;;;;;;15.33;96.96;99360.63;5030701;28;20091;-73
2023/06/29 02:13:52;;;;;;;5.75;4.30;;;;;;;15.37;95.92;99367.13;5013788;28;20507;-73
2023/06/29 02:16:18;;;;;;;5.15;4.65;;;;;;;15.33;97.17;99363.44;5032048;28;20073;-73
2023/06/29 02:18:44;;;;;;;5.78;4.35;;;;;;;15.46;94.57;99367.75;5031334;28;20045;-73
2023/06/29 02:21:09;;;;;;;5.57;3.97;;;;;;;15.42;94.69;99373.28;5031306;28;20025;-73
2023/06/29 02:23:35;;;;;;;7.80;4.22;;;;;;;15.41;94.88;99377.31;5013931;28;20051;-73
2023/06/29 02:26:00;;;;;;;5.68;4.40;;;;;;;15.50;92.72;99374.25;5020709;28;20025;-73
2023/06/29 02:28:26;;;;;;;5.10;3.65;;;;;;;15.59;93.55;99371.19;5051210;28;20075;-73
2023/06/29 02:30:51;;;;;;;5.20;3.80;;;;;;;15.75;93.31;99373.13;5050468;28;20024;-73
2023/06/29 02:33:16;;;;;;;5.35;4.45;;;;;;;15.73;94.39;99365.84;5035094;28;20108;-73
2023/06/29 02:35:42;;;;;;;4.82;4.32;;;;;;;15.86;93.05;99363.69;5013326;28;20025;-73
2023/06/29 02:38:07;;;;;;;6.43;4.20;;;;;;;15.81;91.89;99360.34;5017770;28;20050;-73
2023/06/29 02:40:33;;;;;;;4.40;4.00;;;;;;;15.90;93.15;99358.16;5017008;28;20233;-73
2023/06/29 02:42:58;;;;;;;4.85;4.35;;;;;;;16.04;90.01;99363.22;5029957;28;20442;-73
2023/06/29 02:45:24;;;;;;;6.50;3.63;;;;;;;16.13;88.15;99348.91;5013491;28;20405;-73
2023/06/29 02:47:50;;;;;;;5.60;3.65;;;;;;;16.28;86.39;99341.47;5031209;28;20017;-73
2023/06/29 02:50:15;;;;;;;4.80;3.85;;;;;;;16.18;85.99;99339.31;5031599;28;20030;-72
2023/06/29 02:52:40;;;;;;;5.55;4.30;;;;;;;16.06;86.88;99366.50;5031130;28;20096;-72
2023/06/29 02:55:06;;;;;;;5.18;3.63;;;;;;;16.23;86.25;99364.38;5030465;28;20032;-73
2023/06/29 02:57:32;;;;;;;4.35;3.28;;;;;;;16.14;85.68;99365.44;5030663;28;20109;-73
2023/06/29 02:59:57;;;;;;;4.80;3.70;;;;;;;16.14;85.74;99356.97;5030400;28;20049;-73
2023/06/29 03:02:23;;;;;;;8.15;4.28;;;;;;;16.11;87.79;99354.91;5030335;28;20033;-73
2023/06/29 03:04:48;;;;;;;48.58;5.38;;;;;;;16.08;86.64;99355.66;5031132;28;20026;-72
2023/06/29 03:07:13;;;;;;;7.35;4.28;;;;;;;16.10;86.39;99358.09;5013333;28;20095;-72
2023/06/29 03:09:39;;;;;;;5.45;3.55;;;;;;;16.09;87.07;99354.47;5019736;28;20040;-79
2023/06/29 03:12:05;;;;;;;5.75;3.35;;;;;;;16.10;85.58;99350.44;5020899;28;20051;-79
2023/06/29 03:14:30;;;;;;;5.28;3.10;;;;;;;16.06;85.30;99366.50;5032995;28;20074;-73
2023/06/29 03:16:56;;;;;;;5.43;3.58;;;;;;;15.93;85.61;99363.03;5031923;28;20032;-72
2023/06/29 03:19:21;;;;;;;7.95;3.65;;;;;;;15.92;86.56;99360.56;5032689;28;20041;-73
2023/06/29 03:21:47;;;;;;;4.43;3.75;;;;;;;15.97;87.40;99360.28;5019571;28;20032;-73
2023/06/29 03:24:12;;;;;;;5.38;4.07;;;;;;;15.84;86.85;99353.97;5035835;28;20017;-75
2023/06/29 03:26:37;;;;;;;5.00;3.63;;;;;;;15.90;87.14;99360.97;5029791;28;20029;-75
2023/06/29 03:29:03;;;;;;;8.25;4.15;;;;;;;15.85;86.75;99361.22;5024656;28;20036;-76
2023/06/29 03:31:28;;;;;;;8.60;4.30;;;;;;;15.82;87.05;99373.25;5038272;28;20032;-75
2023/06/29 03:33:57;;;;;;;5.68;3.28;;;;;;;15.76;86.93;99363.50;5029793;28;20562;-75
2023/06/29 03:36:22;;;;;;;4.32;3.20;;;;;;;15.83;86.82;99372.91;5012161;28;20030;-75
2023/06/29 03:38:48;;;;;;;4.15;3.45;;;;;;;15.74;86.29;99377.94;5029953;28;20025;-76
2023/06/29 03:41:13;;;;;;;8.85;4.15;;;;;;;15.65;87.88;99369.72;5032460;28;20021;-76
2023/06/29 03:43:39;;;;;;;4.72;3.58;;;;;;;15.73;88.52;99376.31;5033887;28;20026;-76
2023/06/29 03:46:04;;;;;;;5.10;4.03;;;;;;;15.75;87.74;99376.75;5028710;28;20033;-75
2023/06/29 03:48:30;;;;;;;9.02;4.10;;;;;;;15.78;88.10;99384.47;5030882;28;20022;-76
2023/06/29 03:50:57;;;;;;;5.75;4.40;;;;;;;15.82;87.17;99385.38;5037915;28;20029;-75
2023/06/29 03:53:22;;;;;;;4.50;4.00;;;;;;;15.82;87.88;99384.53;5023819;28;20496;-75
2023/06/29 03:55:48;;;;;;;4.80;3.70;;;;;;;15.85;88.71;99384.63;5031556;28;20163;-75
2023/06/29 03:58:15;;;;;;;8.98;3.92;;;;;;;15.98;87.69;99392.94;5037912;28;20029;-75
2023/06/29 04:00:41;;;;;;;5.38;3.80;;;;;;;15.98;86.19;99401.41;5049861;28;20044;-76
2023/06/29 04:03:06;;;;;;;3.90;3.50;;;;;;;15.88;86.93;99407.63;5024961;28;20444;-76
2023/06/29 04:05:31;;;;;;;5.28;3.58;;;;;;;16.06;88.09;99411.66;5016256;28;20021;-76
2023/06/29 04:07:59;;;;;;;4.90;3.80;;;;;;;16.14;87.42;99418.22;5033931;28;20018;-76
2023/06/29 04:10:25;;;;;;;3.90;3.00;;;;;;;16.09;86.82;99426.97;5034515;28;20028;-76
2023/06/29 04:12:50;;;;;;;4.15;3.45;;;;;;;16.11;87.05;99425.44;5025925;28;20021;-76
2023/06/29 04:15:15;;;;;;;3.70;3.30;;;;;;;16.21;86.31;99426.00;5019167;28;20424;-76
2023/06/29 04:17:41;;;;;;;4.95;3.58;;;;;;;16.18;85.71;99413.47;5041083;28;20435;-76
2023/06/29 04:20:08;;;;;;;7.57;4.53;;;;;;;16.21;85.93;99423.19;5041458;28;20053;-77
2023/06/29 04:22:34;;;;;;;8.40;3.53;;;;;;;16.25;85.77;99418.41;5048280;28;20028;-76
2023/06/29 04:24:59;;;;;;;7.13;4.40;;;;;;;16.22;86.19;99419.97;5047421;28;20095;-76
2023/06/29 04:27:25;;;;;;;6.38;4.70;;;;;;;16.32;86.64;99415.75;5033607;28;20033;-76
2023/06/29 04:29:50;;;;;;;4.40;3.80;;;;;;;16.41;87.14;99424.78;5032793;28;20029;-76
2023/06/29 04:32:15;;;;;;;6.55;4.38;;;;;;;16.45;86.45;99427.66;5016822;28;20045;-76
2023/06/29 04:34:41;;;;;;;21.35;4.90;;;;;;;16.45;86.11;99432.50;5047765;28;20022;-76
2023/06/29 04:37:07;;;;;;;6.50;4.90;;;;;;;16.54;85.82;99421.78;5035342;28;20025;-76
2023/06/29 04:39:32;;;;;;;4.68;3.80;;;;;;;16.46;84.35;99429.28;5014454;28;20029;-76
2023/06/29 04:42:02;;;;;;;6.40;4.38;;;;;;;16.48;86.20;99431.72;5038180;28;20071;-76
2023/06/29 04:44:38;;;;;;;10.23;4.38;;;;;;;16.43;85.93;99441.31;5042522;28;20384;-77
2023/06/29 04:47:03;;;;;;;11.73;4.18;;;;;;;16.46;86.29;99431.28;5021394;28;20047;-76
2023/06/29 04:49:36;;;;;;;8.60;4.20;;;;;;;16.51;85.44;99439.44;5039044;28;20025;-76
2023/06/29 04:52:06;;;;;;;5.60;3.58;;;;;;;16.60;85.01;99428.72;5033271;28;20067;-76
2023/06/29 04:54:32;;;;;;;14.15;4.82;;;;;;;16.61;85.30;99440.84;5032918;28;20075;-76
2023/06/29 04:56:59;;;;;;;7.03;4.00;;;;;;;16.50;85.17;99443.47;5032117;28;20040;-76
2023/06/29 04:59:25;;;;;;;7.00;4.28;;;;;;;16.63;85.78;99433.59;5029791;28;20388;-76
2023/06/29 05:01:51;;;;;;;10.55;3.58;;;;;;;16.55;84.61;99432.66;5014634;28;20415;-76
2023/06/29 05:04:17;;;;;;;4.50;3.42;;;;;;;16.44;84.50;99442.94;5032571;28;20021;-76
2023/06/29 05:06:43;;;;;;;4.75;4.22;;;;;;;16.44;84.90;99451.41;5014797;28;20481;-76
2023/06/29 05:09:08;;;;;;;7.07;4.05;;;;;;;16.38;85.19;99450.91;5032878;28;20027;-76
2023/06/29 05:11:37;;;;;;;4.75;4.15;;;;;;;16.35;86.28;99446.03;5032999;28;20097;-76
2023/06/29 05:14:02;;;;;;;10.90;4.80;;;;;;;16.45;86.53;99450.22;5028789;28;20065;-76
2023/06/29 05:16:28;;;;;;;9.20;4.57;;;;;;;16.33;85.75;99454.06;5019677;28;20413;-78
2023/06/29 05:18:54;;;;;;;13.85;4.07;;;;;;;16.35;86.22;99453.66;5048643;28;20136;-76
2023/06/29 05:21:19;;;;;;;4.60;3.97;;;;;;;16.58;86.57;99458.50;5043898;28;20120;-77
2023/06/29 05:23:45;;;;;;;10.07;4.57;;;;;;;16.85;85.89;99456.56;5032561;28;20090;-75
2023/06/29 05:26:10;;;;;;;7.43;4.10;;;;;;;17.16;83.16;99454.66;5051014;28;20512;-75
2023/06/29 05:28:36;;;;;;;7.60;5.45;;;;;;;17.43;82.26;99451.00;5024893;28;20024;-83
2023/06/29 05:31:01;;;;;;;7.20;4.53;;;;;;;17.66;80.38;99457.38;5020273;28;20083;-83
2023/06/29 05:33:27;;;;;;;8.45;4.50;;;;;;;17.91;80.32;99458.91;5021634;28;20029;-79
2023/06/29 05:35:53;;;;;;;11.63;7.57;;;;;;;17.95;78.92;99454.09;5022214;28;20032;-74
2023/06/29 05:38:18;;;;;;;5.53;4.78;;;;;;;18.11;77.26;99462.41;5042221;28;20036;-78
2023/06/29 05:40:44;;;;;;;9.30;4.07;;;;;;;18.32;77.45;99456.16;5045946;28;20167;-76
2023/06/29 05:43:09;;;;;;;5.43;3.75;;;;;;;18.35;77.17;99463.88;5029779;28;20067;-81
2023/06/29 05:45:36;;;;;;;17.40;4.68;;;;;;;18.63;74.45;99464.53;5028303;28;20033;-74
2023/06/29 05:48:02;;;;;;;6.20;4.03;;;;;;;18.86;73.06;99461.53;5014415;28;20560;-73
2023/06/29 05:50:28;;;;;;;7.50;5.47;;;;;;;19.12;73.68;99467.41;5028688;28;20033;-79
2023/06/29 05:52:54;;;;;;;14.50;4.75;;;;;;;19.30;70.98;99456.19;5035512;28;20493;-75
2023/06/29 05:55:19;;;;;;;11.70;4.78;;;;;;;19.36;69.51;99461.09;5048912;28;20116;-78
2023/06/29 05:57:45;;;;;;;6.05;4.57;;;;;;;19.66;70.81;99456.38;5047820;28;20059;-79
2023/06/29 06:00:12;;;;;;;29.50;5.60;;;;;;;19.88;69.35;99453.66;5034922;28;20025;-80
2023/06/29 06:02:39;;;;;;;6.28;3.70;;;;;;;19.71;68.46;99447.50;5024728;28;20033;-82
2023/06/29 06:05:07;;;;;;;8.00;4.05;;;;;;;19.57;68.14;99451.06;5028035;28;20013;-82
2023/06/29 06:07:33;;;;;;;6.00;4.25;;;;;;;19.40;67.49;99435.59;5023406;28;20025;-80
2023/06/29 06:09:59;;;;;;;6.88;4.40;;;;;;;19.57;67.92;99445.41;5030401;28;20514;-81
2023/06/29 06:12:24;;;;;;;10.82;4.40;;;;;;;19.42;67.27;99440.88;5052494;28;20035;-82
2023/06/29 06:14:50;;;;;;;4.65;3.90;;;;;;;19.79;65.79;99442.69;5050762;28;20030;-81
2023/06/29 06:17:15;;;;;;;9.50;4.45;;;;;;;19.71;68.24;99430.50;5063815;28;20056;-81
2023/06/29 06:19:41;;;;;;;4.82;4.32;;;;;;;19.82;65.80;99438.25;5045663;28;20049;-81
2023/06/29 06:22:07;;;;;;;22.20;5.15;;;;;;;19.56;66.18;99440.16;5039208;28;20064;-83
2023/06/29 06:24:32;;;;;;;6.10;3.88;;;;;;;19.58;64.90;99438.53;5058262;28;20475;-79
2023/06/29 06:26:58;;;;;;;5.43;4.20;;;;;;;19.84;66.41;99433.75;5057010;28;20637;-80
2023/06/29 06:29:23;;;;;;;7.65;3.88;;;;;;;19.93;65.87;99441.97;5041519;28;20025;-80
2023/06/29 06:31:49;;;;;;;6.82;4.03;;;;;;;20.06;65.13;99453.75;5035244;28;20460;-79
2023/06/29 06:34:14;;;;;;;4.50;4.07;;;;;;;20.04;65.22;99439.16;5029442;28;20479;-80
2023/06/29 06:36:40;;;;;;;5.15;4.35;;;;;;;20.22;65.00;99446.91;5028864;28;20029;-78
2023/06/29 06:39:05;;;;;;;6.63;4.15;;;;;;;20.34;64.85;99450.19;5042964;28;20017;-79
2023/06/29 06:41:31;;;;;;;6.13;4.30;;;;;;;20.32;62.98;99429.06;5048092;28;20029;-78
2023/06/29 06:43:57;;;;;;;4.30;3.90;;;;;;;20.50;62.96;99442.50;5042930;28;20061;-78
2023/06/29 06:46:23;;;;;;;4.32;3.92;;;;;;;20.55;62.26;99442.09;5052671;28;20385;-78
2023/06/29 06:48:49;;;;;;;8.65;4.13;;;;;;;20.53;61.06;99434.00;5030007;28;20041;-82
2023/06/29 06:51:14;;;;;;;4.97;4.10;;;;;;;20.60;59.60;99441.69;5033478;28;20032;-78
2023/06/29 06:53:40;;;;;;;6.40;4.10;;;;;;;20.57;60.36;99434.78;5050273;28;20033;-75
2023/06/29 06:56:05;;;;;;;5.35;4.15;;;;;;;20.68;61.20;99439.66;5056476;28;20029;-79
2023/06/29 06:58:31;;;;;;;6.65;4.10;;;;;;;20.95;60.44;99442.97;5041595;28;20031;-80
2023/06/29 07:00:57;;;;;;;5.03;4.10;;;;;;;20.90;59.84;99432.81;5032950;28;20044;-78
2023/06/29 07:03:23;;;;;;;5.25;4.63;;;;;;;20.62;58.36;99436.41;5028024;28;20118;-81
2023/06/29 07:05:49;;;;;;;8.40;3.90;;;;;;;20.91;58.81;99425.06;5030931;28;20083;-84
2023/06/29 07:08:14;;;;;;;7.95;4.60;;;;;;;21.21;60.15;99423.84;5026781;28;20025;-85
2023/06/29 07:10:40;;;;;;;5.45;3.95;;;;;;;21.01;57.42;99434.84;5036095;28;20098;-80
2023/06/29 07:13:05;;;;;;;9.43;5.25;;;;;;;21.15;59.42;99429.13;5023164;28;20128;-80
2023/06/29 07:15:31;;;;;;;4.07;3.67;;;;;;;21.03;56.88;99421.81;5023729;28;20033;-81
2023/06/29 07:17:56;;;;;;;12.68;4.55;;;;;;;21.22;57.79;99421.78;5027696;28;20086;-80
2023/06/29 07:20:22;;;;;;;5.53;3.47;;;;;;;21.15;56.99;99414.91;5031006;28;20057;-83
2023/06/29 07:22:48;;;;;;;14.75;4.72;;;;;;;21.32;54.47;99427.47;5022704;28;20433;-88
2023/06/29 07:25:14;;;;;;;6.70;3.67;;;;;;;21.59;56.50;99429.00;5023797;28;20104;-83
2023/06/29 07:27:39;;;;;;;3.95;3.55;;;;;;;21.51;55.22;99430.25;5049886;28;20499;-85
2023/06/29 07:30:06;;;;;;;4.10;3.40;;;;;;;21.37;54.31;99423.41;5030575;28;20028;-84
2023/06/29 07:32:33;;;;;;;7.03;3.90;;;;;;;21.62;54.24;99416.81;5024925;28;20040;-87
2023/06/29 07:34:58;;;;;;;4.63;3.15;;;;;;;21.71;53.57;99408.66;5046427;28;20029;-82
2023/06/29 07:37:24;;;;;;;4.18;3.85;;;;;;;21.69;54.83;99413.94;5027163;28;20025;-77
2023/06/29 07:39:49;;;;;;;7.40;3.92;;;;;;;21.80;54.15;99416.78;5029994;28;20478;-83
2023/06/29 07:42:14;;;;;;;4.05;3.08;;;;;;;21.55;53.02;99419.66;5024036;28;20063;-87
2023/06/29 07:44:40;;;;;;;6.28;3.20;;;;;;;21.84;52.68;99428.94;5050291;28;20035;-84
2023/06/29 07:47:06;;;;;;;5.22;4.30;;;;;;;21.74;53.02;99426.94;5026378;28;20026;-82
2023/06/29 07:49:31;;;;;;;5.30;4.22;;;;;;;21.72;53.42;99413.16;5047599;28;20036;-79
2023/06/29 07:51:58;;;;;;;4.50;3.50;;;;;;;21.93;52.40;99431.34;5042990;28;20595;-80
2023/06/29 07:54:23;;;;;;;4.70;3.22;;;;;;;21.87;52.43;99433.81;5045229;28;20083;-82
2023/06/29 07:56:49;;;;;;;6.30;2.95;;;;;;;21.68;51.71;99426.56;5011818;28;20037;-82
2023/06/29 07:59:16;;;;;;;7.18;3.55;;;;;;;21.51;52.81;99404.66;5048337;28;20468;-84
2023/06/29 08:01:41;;;;;;;4.13;3.25;;;;;;;21.67;50.80;99422.09;5029955;28;20044;-82
2023/06/29 08:04:07;;;;;;;3.70;3.40;;;;;;;21.78;51.98;99418.41;5046791;28;21359;-80
2023/06/29 08:06:34;;;;;;;4.55;3.42;;;;;;;22.04;51.87;99430.47;5025158;28;20476;-83
2023/06/29 08:09:00;;;;;;;4.95;4.00;;;;;;;21.91;50.71;99415.91;5042880;28;20137;-83
2023/06/29 08:11:27;;;;;;;3.65;3.33;;;;;;;22.23;52.13;99415.72;5012267;28;20033;-82
2023/06/29 08:13:53;;;;;;;3.97;3.47;;;;;;;22.27;51.18;99416.50;5040595;28;20126;-83
2023/06/29 08:16:18;;;;;;;9.63;3.30;;;;;;;22.78;52.52;99423.91;5030718;28;20763;-86
2023/06/29 08:18:44;;;;;;;5.90;3.63;;;;;;;22.58;52.51;99413.06;5024274;28;20045;-83
2023/06/29 08:21:12;;;;;;;4.00;3.60;;;;;;;22.75;51.49;99414.16;5041281;28;20030;-86
2023/06/29 08:23:37;;;;;;;6.95;3.58;;;;;;;22.82;50.39;99411.25;5021184;28;20068;-83
2023/06/29 08:26:04;;;;;;;4.25;3.85;;;;;;;22.54;50.90;99413.09;5036917;28;20053;-85
2023/06/29 08:28:29;;;;;;;3.50;3.20;;;;;;;22.41;52.73;99414.78;5017751;28;20079;-82
2023/06/29 08:30:55;;;;;;;6.07;3.20;;;;;;;22.58;52.37;99413.88;5021400;28;20033;-81
2023/06/29 08:33:23;;;;;;;3.78;3.40;;;;;;;22.72;50.80;99406.44;5037323;28;20037;-84
2023/06/29 08:35:51;;;;;;;3.53;3.22;;;;;;;22.78;51.16;99404.75;5022758;28;20523;-85
2023/06/29 08:38:17;;;;;;;10.43;3.60;;;;;;;23.24;51.59;99419.00;5042039;28;20068;-80
2023/06/29 08:40:46;;;;;;;4.63;3.08;;;;;;;23.49;49.41;99406.53;5050509;28;20033;-81
2023/06/29 08:43:14;;;;;;;3.42;2.80;;;;;;;23.31;48.91;99407.53;5042011;28;20041;-82
2023/06/29 08:45:40;;;;;;;3.35;3.05;;;;;;;23.49;50.35;99404.50;5044685;28;20500;-84
2023/06/29 08:48:06;;;;;;;9.43;3.50;;;;;;;23.36;49.38;99386.31;5014942;28;20135;-79
2023/06/29 08:50:35;;;;;;;6.10;3.08;;;;;;;23.44;49.00;99393.53;5047093;28;20037;-81
2023/06/29 08:53:01;;;;;;;4.82;3.00;;;;;;;23.92;50.05;99393.75;5026858;28;20308;-78
2023/06/29 08:55:27;;;;;;;5.57;3.38;;;;;;;23.96;47.94;99400.25;5026856;28;20029;-82
2023/06/29 08:57:54;;;;;;;6.43;2.92;;;;;;;24.04;48.16;99400.97;5031514;28;20494;-83
2023/06/29 09:00:22;;;;;;;4.13;2.72;;;;;;;23.67;47.07;99395.72;5017947;28;20042;-83
2023/06/29 09:02:49;;;;;;;2.65;2.42;;;;;;;23.48;45.06;99388.59;5020262;28;20539;-82
2023/06/29 09:05:14;;;;;;;6.05;2.80;;;;;;;23.39;46.48;99380.53;5023953;28;20063;-84
2023/06/29 09:07:40;;;;;;;2.85;2.53;;;;;;;23.66;47.66;99379.81;5024575;28;20060;-84
2023/06/29 09:10:08;;;;;;;4.97;2.55;;;;;;;24.04;47.04;99378.13;5017334;28;20029;-85
2023/06/29 09:12:36;;;;;;;8.02;2.75;;;;;;;24.07;47.07;99386.66;5044075;28;20032;-80
2023/06/29 09:15:13;;;;;;;3.47;3.17;;;;;;;23.73;47.93;99393.19;5040190;28;20028;-80
2023/06/29 09:17:48;;;;;;;6.55;2.60;;;;;;;23.97;46.17;99385.50;5028566;28;20037;-79
2023/06/29 09:20:15;;;;;;;3.05;2.83;;;;;;;23.99;46.56;99390.81;5030193;28;20048;-80
2023/06/29 09:22:42;;;;;;;6.85;2.90;;;;;;;23.91;46.49;99387.25;5018216;28;20068;-78
2023/06/29 09:25:10;;;;;;;3.75;2.78;;;;;;;24.27;45.79;99368.00;5046558;28;20021;-79
2023/06/29 09:27:36;;;;;;;3.60;2.15;;;;;;;24.19;45.49;99379.53;5032747;28;20025;-82
2023/06/29 09:30:03;;;;;;;4.68;2.20;;;;;;;24.32;44.64;99378.94;5046239;28;20514;-82
2023/06/29 09:32:30;;;;;;;3.40;2.13;;;;;;;23.66;43.93;99381.84;5021357;28;20116;-81
2023/06/29 09:34:55;;;;;;;2.50;2.00;;;;;;;23.80;45.02;99369.44;5042418;28;20045;-81
2023/06/29 09:37:21;;;;;;;5.78;2.40;;;;;;;24.29;45.45;99371.22;5020060;28;20032;-77
2023/06/29 09:40:00;;;;;;;5.38;2.90;;;;;;;24.61;45.67;99367.00;5027301;28;20098;-74
2023/06/29 09:42:28;;;;;;;8.32;2.45;;;;;;;24.34;44.57;99380.13;5042452;28;20033;-80
2023/06/29 09:44:55;;;;;;;5.45;3.25;;;;;;;24.31;45.52;99380.16;5041956;28;20404;-77
2023/06/29 09:47:21;;;;;;;2.47;2.25;;;;;;;24.50;45.31;99375.78;5012173;28;20045;-77
2023/06/29 09:49:48;;;;;;;4.45;2.40;;;;;;;24.56;44.43;99376.09;5045250;28;20036;-75
2023/06/29 09:52:15;;;;;;;3.45;2.70;;;;;;;24.33;41.77;99374.81;5023436;28;20159;-77
2023/06/29 09:54:41;;;;;;;3.72;2.15;;;;;;;24.46;44.76;99364.41;5025599;28;20067;-78
2023/06/29 09:57:10;;;;;;;7.00;2.78;;;;;;;24.34;41.89;99365.84;5027674;28;20029;-82
2023/06/29 09:59:38;;;;;;;4.65;2.30;;;;;;;24.70;42.44;99352.97;5029370;28;20070;-77
2023/06/29 10:02:03;;;;;;;3.05;1.98;;;;;;;24.47;42.14;99365.22;5044266;28;20021;-74
2023/06/29 10:04:29;;;;;;;2.83;2.00;;;;;;;24.73;41.94;99360.69;5045263;28;20063;-75
2023/06/29 10:07:16;;;;;;;2.65;1.90;;;;;;;24.88;40.25;99355.53;5023661;28;20036;-75
2023/06/29 10:09:46;;;;;;;4.18;2.88;;;;;;;25.03;41.15;99352.41;5046695;28;20029;-83
2023/06/29 10:12:12;;;;;;;2.45;2.03;;;;;;;25.35;40.68;99348.13;5025678;28;20099;-76
2023/06/29 10:14:40;;;;;;;2.05;1.88;;;;;;;25.93;38.33;99342.00;5030872;28;20029;-78
2023/06/29 10:17:09;;;;;;;2.38;2.10;;;;;;;25.27;38.12;99338.06;5018780;28;20510;-75
2023/06/29 10:19:37;;;;;;;5.00;2.83;;;;;;;25.42;39.77;99344.31;5045364;28;20080;-76
2023/06/29 10:22:07;;;;;;;2.67;1.90;;;;;;;25.12;38.19;99337.56;5029427;28;20049;-79
2023/06/29 10:24:39;;;;;;;2.47;1.57;;;;;;;25.32;40.86;99335.50;5045200;28;20051;-76
2023/06/29 10:27:07;;;;;;;7.22;2.00;;;;;;;25.41;42.25;99334.09;5025872;28;20029;-76
2023/06/29 10:29:45;;;;;;;2.05;1.70;;;;;;;25.36;42.15;99332.56;5036776;28;20061;-78
2023/06/29 10:32:28;;;;;;;4.95;2.10;;;;;;;25.33;39.73;99328.53;5046181;28;20045;-74
2023/06/29 10:35:07;;;;;;;5.22;1.52;;;;;;;25.54;36.83;99315.03;5027249;28;20041;-73
2023/06/29 10:37:38;;;;;;;2.35;1.80;;;;;;;25.67;38.98;99325.81;5045834;28;20111;-77
2023/06/29 10:40:28;;;;;;;2.47;1.95;;;;;;;25.01;39.95;99327.13;5041214;28;20496;-74
2023/06/29 10:42:55;;;;;;;1.88;1.60;;;;;;;25.69;38.73;99327.00;5025040;28;20024;-74
2023/06/29 10:45:21;;;;;;;3.05;1.77;;;;;;;25.83;39.38;99328.75;5043260;28;20137;-75
2023/06/29 10:47:55;;;;;;;2.90;1.70;;;;;;;26.35;40.03;99329.97;5045593;28;20124;-78
2023/06/29 10:50:34;;;;;;;4.07;2.10;;;;;;;25.40;40.78;99323.91;5022520;28;20041;-76
2023/06/29 10:53:01;;;;;;;2.92;1.77;;;;;;;25.95;38.70;99332.16;5039816;28;20055;-76
2023/06/29 10:55:37;;;;;;;3.15;2.17;;;;;;;25.83;38.81;99320.16;5042505;28;20041;-77
2023/06/29 10:58:35;;;;;;;2.53;2.30;;;;;;;26.31;37.92;99323.53;5024492;28;20419;-79
2023/06/29 11:01:01;;;;;;;5.97;2.33;;;;;;;26.41;39.02;99315.13;5041119;28;20120;-77
2023/06/29 11:03:28;;;;;;;4.68;2.00;;;;;;;26.00;39.81;99312.38;5021765;28;20499;-80
2023/06/29 11:05:54;;;;;;;2.92;2.33;;;;;;;26.69;39.52;99324.22;5046260;28;20036;-75
2023/06/29 11:08:24;;;;;;;3.40;2.88;;;;;;;26.51;37.06;99310.34;5047975;28;20048;-75
2023/06/29 11:10:51;;;;;;;1.88;1.60;;;;;;;26.09;39.10;99306.03;5025023;28;20021;-77
2023/06/29 11:13:18;;;;;;;2.75;1.83;;;;;;;26.58;37.36;99301.59;5032123;28;20567;-77
2023/06/29 11:15:51;;;;;;;4.07;1.58;;;;;;;26.92;36.15;99303.16;5025734;28;20108;-78
2023/06/29 11:18:16;;;;;;;5.05;1.50;;;;;;;26.65;35.18;99291.97;5023246;28;20043;-76
2023/06/29 11:20:42;;;;;;;3.17;1.75;;;;;;;26.82;37.62;99290.69;5025062;28;20052;-77
2023/06/29 11:23:08;;;;;;;4.85;2.38;;;;;;;26.39;36.72;99292.63;5029459;28;20119;-78
2023/06/29 11:25:34;;;;;;;1.85;1.70;;;;;;;26.42;36.00;99290.94;5030145;28;20017;-76
2023/06/29 11:28:01;;;;;;;3.05;2.17;;;;;;;26.57;37.73;99294.25;5050115;28;20021;-76
2023/06/29 11:30:26;;;;;;;4.40;1.83;;;;;;;27.07;35.93;99291.28;5031600;28;20052;-76